Time;durP1;ratioP1;P1;durP2;ratioP2;P2;SDS_P1;SDS_P2;PMS_P1;PMS_P2;Temp;Humidity;BMP_temperature;BMP_pressure;BME280_temperature;BME280_humidity;BME280_pressure;Samples;Min_cycle;Max_cycle;Signal;HPM_P1;HPM_P2
2022/01/30 00:00:48;;;;;;;1.97;0.77;;;7.90;99.90;;;;;;5054187;28;20181;-74
2022/01/30 00:03:15;;;;;;;1.17;0.60;;;8.00;99.90;;;;;;5036112;28;20235;-76
2022/01/30 00:05:41;;;;;;;0.40;0.40;;;8.00;99.90;;;;;;5035913;28;20236;-76
2022/01/30 00:08:08;;;;;;;1.73;0.53;;;8.00;99.90;;;;;;5036760;28;20186;-77
2022/01/30 00:10:39;;;;;;;0.57;0.40;;;8.20;99.90;;;;;;5052448;28;20181;-73
2022/01/30 00:13:08;;;;;;;0.70;0.50;;;8.00;99.90;;;;;;5019821;28;20182;-76
2022/01/30 00:15:45;;;;;;;0.80;0.50;;;7.90;99.90;;;;;;5035199;28;20278;-77
2022/01/30 00:18:22;;;;;;;0.47;0.47;;;8.00;99.90;;;;;;5050979;28;20173;-74
2022/01/30 00:21:03;;;;;;;0.50;0.50;;;8.20;99.90;;;;;;5051502;28;20703;-76
2022/01/30 00:23:31;;;;;;;0.40;0.40;;;7.90;99.90;;;;;;5051290;28;20246;-75
2022/01/30 00:25:58;;;;;;;0.80;0.60;;;8.00;99.90;;;;;;5052395;28;20695;-76
2022/01/30 00:28:25;;;;;;;0.70;0.40;;;8.10;99.90;;;;;;5035095;28;20173;-76
2022/01/30 00:30:53;;;;;;;0.40;0.40;;;8.10;99.90;;;;;;5051083;28;20193;-74
2022/01/30 00:33:19;;;;;;;0.50;0.50;;;8.00;99.90;;;;;;5052759;28;20169;-76
2022/01/30 00:35:45;;;;;;;0.73;0.60;;;8.10;99.90;;;;;;5050851;28;20567;-74
2022/01/30 00:38:15;;;;;;;0.50;0.50;;;8.10;99.90;;;;;;5047854;28;20651;-77
2022/01/30 00:40:42;;;;;;;0.60;0.53;;;8.00;99.90;;;;;;5032403;28;20185;-74
2022/01/30 00:43:08;;;;;;;0.70;0.63;;;8.00;99.90;;;;;;5031016;28;20629;-77
2022/01/30 00:45:34;;;;;;;1.03;0.67;;;8.10;99.90;;;;;;5030862;28;20292;-75
2022/01/30 00:48:01;;;;;;;0.97;0.60;;;8.00;99.90;;;;;;5014615;28;20601;-75
2022/01/30 00:50:27;;;;;;;0.50;0.50;;;7.90;99.90;;;;;;4998008;28;20182;-77
2022/01/30 00:52:56;;;;;;;0.50;0.43;;;7.90;99.90;;;;;;5030899;28;20300;-76
2022/01/30 00:55:24;;;;;;;0.50;0.50;;;8.00;99.90;;;;;;4998981;28;20193;-75
2022/01/30 00:57:53;;;;;;;0.60;0.50;;;8.10;99.90;;;;;;5032160;28;20170;-76
2022/01/30 01:00:19;;;;;;;0.87;0.80;;;8.10;99.90;;;;;;5031860;28;20174;-77
2022/01/30 01:02:45;;;;;;;1.20;0.57;;;8.00;99.90;;;;;;5030665;28;20189;-74
2022/01/30 01:05:12;;;;;;;0.50;0.50;;;8.00;99.90;;;;;;5014110;28;20213;-74
2022/01/30 01:07:42;;;;;;;0.50;0.50;;;8.00;99.90;;;;;;5013961;28;20264;-75
2022/01/30 01:10:29;;;;;;;0.73;0.60;;;8.00;99.90;;;;;;5031925;28;20228;-75
2022/01/30 01:23:52;;;;;;;0.90;0.50;;;8.20;99.90;;;;;;5051580;28;20275;-76
2022/01/30 01:26:20;;;;;;;1.80;0.70;;;8.20;99.90;;;;;;5051574;28;20181;-74
2022/01/30 01:28:46;;;;;;;1.27;0.77;;;8.30;99.90;;;;;;5053007;28;20165;-78
2022/01/30 01:31:12;;;;;;;0.87;0.50;;;8.40;99.90;;;;;;5052311;28;20717;-75
2022/01/30 01:36:24;;;;;;;0.57;0.50;;;8.50;99.90;;;;;;5052693;28;20549;-76
2022/01/30 01:38:49;;;;;;;0.80;0.70;;;8.40;99.90;;;;;;5042611;28;20174;-75
2022/01/30 01:41:19;;;;;;;1.00;0.80;;;8.30;99.90;;;;;;5032594;28;20188;-74
2022/01/30 01:43:45;;;;;;;0.70;0.50;;;8.40;99.90;;;;;;5030828;28;20660;-76
2022/01/30 01:46:18;;;;;;;1.10;0.70;;;8.40;99.90;;;;;;5031081;28;20206;-76
2022/01/30 01:48:47;;;;;;;1.00;0.60;;;8.40;99.90;;;;;;5031186;28;20212;-75
2022/01/30 01:51:18;;;;;;;1.03;0.67;;;8.40;99.90;;;;;;5031810;28;20182;-76
2022/01/30 01:53:50;;;;;;;0.67;0.60;;;8.40;99.90;;;;;;5014794;28;20555;-78
2022/01/30 01:56:17;;;;;;;0.50;0.50;;;8.60;99.90;;;;;;5030600;28;20225;-76
2022/01/30 01:58:43;;;;;;;0.50;0.50;;;8.60;99.90;;;;;;5030517;28;20224;-75
2022/01/30 02:01:09;;;;;;;0.67;0.67;;;8.60;99.90;;;;;;5023352;28;20601;-75
2022/01/30 02:03:37;;;;;;;1.20;0.77;;;8.40;99.90;;;;;;5031817;28;20197;-77
2022/01/30 02:06:05;;;;;;;3.73;0.80;;;8.40;99.90;;;;;;5031861;28;20205;-75
2022/01/30 02:27:20;;;;;;;0.63;0.53;;;8.10;99.90;;;;;;5031727;28;20181;-75
2022/01/30 02:29:47;;;;;;;1.00;0.60;;;8.30;99.90;;;;;;5036964;28;20174;-74
2022/01/30 02:32:13;;;;;;;0.60;0.60;;;8.30;99.90;;;;;;5031288;28;20190;-75
2022/01/30 02:34:39;;;;;;;0.90;0.60;;;8.20;99.90;;;;;;5047366;28;20258;-75
2022/01/30 02:37:06;;;;;;;1.50;0.60;;;8.30;99.90;;;;;;5051279;28;20177;-75
2022/01/30 02:39:35;;;;;;;0.50;0.50;;;8.40;99.90;;;;;;5050172;28;20181;-78
2022/01/30 02:42:04;;;;;;;2.40;0.90;;;8.30;99.90;;;;;;5033228;28;20891;-74
2022/01/30 02:44:50;;;;;;;0.50;0.50;;;8.40;99.90;;;;;;5049667;28;20224;-76
2022/01/30 02:52:37;;;;;;;1.17;0.90;;;8.80;99.90;;;;;;5031362;28;20173;-76
2022/01/30 02:55:04;;;;;;;1.40;0.60;;;8.70;99.90;;;;;;5030368;28;20293;-75
2022/01/30 02:57:30;;;;;;;0.93;0.80;;;8.60;99.90;;;;;;5031734;28;20186;-76
2022/01/30 02:59:56;;;;;;;2.20;0.90;;;8.70;99.90;;;;;;5030614;28;20746;-75
2022/01/30 03:02:22;;;;;;;0.50;0.50;;;8.90;99.90;;;;;;5029442;28;20185;-76
2022/01/30 03:04:47;;;;;;;3.80;1.40;;;8.60;99.90;;;;;;5034535;28;20213;-78
2022/01/30 03:07:13;;;;;;;0.83;0.80;;;8.60;99.90;;;;;;5031337;28;20540;-74
2022/01/30 03:09:39;;;;;;;2.63;1.07;;;8.60;99.90;;;;;;5000543;28;20217;-77
2022/01/30 03:12:06;;;;;;;3.10;1.30;;;8.70;99.90;;;;;;5050663;28;20192;-78
2022/01/30 03:14:32;;;;;;;4.20;1.10;;;8.80;99.90;;;;;;5040160;28;20688;-75
2022/01/30 03:16:58;;;;;;;6.53;2.80;;;9.00;99.90;;;;;;5013195;28;20209;-76
2022/01/30 03:19:24;;;;;;;5.10;2.40;;;8.90;99.90;;;;;;5013086;28;20209;-77
2022/01/30 03:21:50;;;;;;;2.43;1.37;;;9.00;99.90;;;;;;5030746;28;20670;-77
2022/01/30 03:24:15;;;;;;;6.03;2.00;;;9.00;99.90;;;;;;5030691;28;20178;-76
2022/01/30 03:26:42;;;;;;;5.33;2.00;;;9.10;99.90;;;;;;5029854;28;20185;-74
2022/01/30 03:29:10;;;;;;;2.10;1.30;;;9.00;99.90;;;;;;5031963;28;20173;-75
2022/01/30 03:31:41;;;;;;;2.53;1.40;;;8.80;99.90;;;;;;5031116;28;20549;-75
2022/01/30 03:34:08;;;;;;;6.07;2.63;;;8.80;99.90;;;;;;5012899;28;20174;-75
2022/01/30 03:36:34;;;;;;;2.10;1.43;;;8.80;99.90;;;;;;5030445;28;20583;-74
2022/01/30 03:39:00;;;;;;;13.70;5.70;;;8.90;99.90;;;;;;5013272;28;20537;-76
2022/01/30 03:41:26;;;;;;;3.53;1.70;;;8.90;99.90;;;;;;5030553;28;20186;-75
2022/01/30 03:43:54;;;;;;;5.20;2.60;;;9.00;99.90;;;;;;5029568;28;20602;-77
2022/01/30 03:46:21;;;;;;;2.07;1.17;;;9.00;99.90;;;;;;5013093;28;20209;-76
2022/01/30 03:48:47;;;;;;;2.67;1.60;;;8.90;99.90;;;;;;5030605;28;20228;-74
2022/01/30 03:51:13;;;;;;;4.87;2.57;;;8.90;99.90;;;;;;5029616;28;20178;-75
2022/01/30 03:53:39;;;;;;;14.97;7.23;;;8.90;99.90;;;;;;5012880;28;20185;-76
2022/01/30 03:56:05;;;;;;;11.40;6.13;;;9.00;99.90;;;;;;5013002;28;20580;-74
2022/01/30 03:58:32;;;;;;;6.90;3.10;;;8.90;99.90;;;;;;5030606;28;20169;-76
2022/01/30 04:00:58;;;;;;;30.83;16.13;;;8.90;99.90;;;;;;5030700;28;20205;-76
2022/01/30 04:03:24;;;;;;;4.90;3.10;;;9.00;99.90;;;;;;5029364;28;20324;-75
2022/01/30 04:05:50;;;;;;;3.23;1.90;;;8.70;99.90;;;;;;5015996;28;20209;-77
2022/01/30 04:08:16;;;;;;;6.57;3.60;;;8.80;99.90;;;;;;5036021;28;20272;-76
2022/01/30 04:10:43;;;;;;;6.03;3.00;;;9.00;99.90;;;;;;5047254;28;20252;-75
2022/01/30 04:13:09;;;;;;;4.60;2.80;;;9.00;99.90;;;;;;5045756;28;20169;-75
2022/01/30 04:15:35;;;;;;;7.00;4.17;;;9.00;99.90;;;;;;5012082;28;20761;-75
2022/01/30 04:18:01;;;;;;;6.47;2.40;;;8.90;99.90;;;;;;5029670;28;20186;-75
2022/01/30 04:20:29;;;;;;;4.97;1.97;;;9.00;99.90;;;;;;5029813;28;20612;-76
2022/01/30 04:22:55;;;;;;;4.00;2.30;;;9.00;99.90;;;;;;5013456;28;20182;-74
2022/01/30 04:25:21;;;;;;;2.37;1.60;;;8.90;99.90;;;;;;5030280;28;20210;-77
2022/01/30 04:27:48;;;;;;;2.23;1.70;;;8.90;99.90;;;;;;5033959;28;20180;-75
2022/01/30 04:30:14;;;;;;;3.77;1.97;;;9.00;99.90;;;;;;5032361;28;20174;-76
2022/01/30 04:32:42;;;;;;;1.90;1.30;;;9.00;99.90;;;;;;5032347;28;20635;-76
2022/01/30 04:35:13;;;;;;;3.80;1.47;;;8.90;99.90;;;;;;5032266;28;20747;-74
2022/01/30 04:37:57;;;;;;;4.70;2.60;;;8.90;99.90;;;;;;5033870;28;20209;-77
2022/01/30 05:09:41;;;;;;;2.10;1.37;;;8.70;99.90;;;;;;5009411;28;20182;-76
2022/01/30 05:12:09;;;;;;;3.70;1.40;;;8.70;99.90;;;;;;5033035;28;20178;-76
2022/01/30 05:14:36;;;;;;;2.53;1.30;;;8.60;99.90;;;;;;5042910;28;20193;-77
2022/01/30 05:17:04;;;;;;;3.90;1.40;;;8.70;99.90;;;;;;5053190;28;20700;-76
2022/01/30 05:19:31;;;;;;;5.47;1.67;;;8.60;99.90;;;;;;5054003;28;20181;-76
2022/01/30 05:21:58;;;;;;;5.37;1.40;;;8.70;99.90;;;;;;5051362;28;20178;-77
2022/01/30 05:24:24;;;;;;;2.67;1.33;;;8.80;99.90;;;;;;5049170;28;20613;-77
2022/01/30 05:26:51;;;;;;;4.17;1.60;;;8.60;99.90;;;;;;5035199;28;20185;-75
2022/01/30 05:29:18;;;;;;;5.03;1.53;;;8.50;99.90;;;;;;5022631;28;20189;-75
2022/01/30 05:31:44;;;;;;;4.80;1.50;;;8.40;99.90;;;;;;5029085;28;20197;-77
2022/01/30 05:34:10;;;;;;;3.90;1.50;;;8.50;99.90;;;;;;5031303;28;20188;-76
2022/01/30 05:36:39;;;;;;;5.10;1.40;;;8.60;99.90;;;;;;5032240;28;20224;-76
2022/01/30 05:39:06;;;;;;;7.00;1.50;;;8.70;99.90;;;;;;5051376;28;20699;-78
2022/01/30 05:41:33;;;;;;;3.53;1.37;;;8.80;99.90;;;;;;5034686;28;20605;-76
2022/01/30 05:44:15;;;;;;;2.87;1.40;;;8.80;99.90;;;;;;5035697;28;20182;-75
2022/01/30 05:46:53;;;;;;;3.83;1.30;;;8.60;99.90;;;;;;5016650;28;20239;-76
2022/01/30 05:49:19;;;;;;;4.17;1.50;;;8.60;99.90;;;;;;5032614;28;20233;-77
2022/01/30 05:51:45;;;;;;;3.33;1.43;;;8.70;99.90;;;;;;5032414;28;20174;-75
2022/01/30 05:54:11;;;;;;;5.10;1.50;;;8.50;99.90;;;;;;5031233;28;20180;-76
2022/01/30 05:56:37;;;;;;;2.07;1.33;;;8.60;99.90;;;;;;5014597;28;20174;-76
2022/01/30 05:59:03;;;;;;;4.47;1.47;;;8.50;99.90;;;;;;5031068;28;20573;-78
2022/01/30 06:01:30;;;;;;;3.77;1.53;;;8.60;99.90;;;;;;5050525;28;20189;-78
2022/01/30 06:03:57;;;;;;;7.87;1.80;;;8.70;99.90;;;;;;5051878;28;20181;-77
2022/01/30 06:06:23;;;;;;;6.57;1.90;;;8.80;99.90;;;;;;5052070;28;20209;-76
2022/01/30 06:09:11;;;;;;;5.33;1.80;;;8.90;99.90;;;;;;5046238;28;20178;-77
2022/01/30 06:11:37;;;;;;;5.90;1.70;;;8.90;99.90;;;;;;4990462;28;20208;-79
2022/01/30 06:14:03;;;;;;;7.77;1.53;;;8.80;99.90;;;;;;5024150;28;20201;-75
2022/01/30 06:16:28;;;;;;;4.17;1.67;;;8.70;99.90;;;;;;5029352;28;20767;-76
2022/01/30 06:18:55;;;;;;;7.27;1.57;;;8.80;99.90;;;;;;5030675;28;20570;-77
2022/01/30 06:21:20;;;;;;;5.00;1.47;;;8.60;99.90;;;;;;5029975;28;20204;-77
2022/01/30 06:23:46;;;;;;;6.23;1.60;;;8.50;99.90;;;;;;5045008;28;20253;-76
2022/01/30 06:26:12;;;;;;;7.53;1.40;;;8.70;99.90;;;;;;5031245;28;20206;-78
2022/01/30 06:28:37;;;;;;;4.67;1.37;;;8.70;99.90;;;;;;5031943;28;20170;-76
2022/01/30 06:31:03;;;;;;;3.33;1.23;;;8.60;99.90;;;;;;5014039;28;20574;-77
2022/01/30 06:33:29;;;;;;;2.43;1.30;;;8.30;99.90;;;;;;5013619;28;20220;-75
2022/01/30 06:35:54;;;;;;;2.40;1.23;;;8.50;99.90;;;;;;5030282;28;20224;-77
2022/01/30 06:38:20;;;;;;;7.30;1.43;;;8.50;99.90;;;;;;5013216;28;20578;-75
2022/01/30 06:40:46;;;;;;;3.93;1.50;;;8.40;99.90;;;;;;5030101;28;20235;-77
2022/01/30 06:43:12;;;;;;;4.03;1.40;;;8.30;99.90;;;;;;5030164;28;20178;-78
2022/01/30 06:45:38;;;;;;;3.70;1.40;;;8.50;99.90;;;;;;5013846;28;20277;-78
2022/01/30 06:48:04;;;;;;;6.10;1.80;;;8.50;99.90;;;;;;5030318;28;20182;-80
2022/01/30 06:50:30;;;;;;;3.93;1.60;;;8.50;99.90;;;;;;5030321;28;20533;-77
2022/01/30 06:52:55;;;;;;;2.57;1.30;;;8.50;99.90;;;;;;5013373;28;20186;-75
2022/01/30 06:55:21;;;;;;;4.33;1.20;;;8.40;99.90;;;;;;5030680;28;20181;-76
2022/01/30 06:57:47;;;;;;;6.57;1.50;;;8.30;99.90;;;;;;5030703;28;20186;-78
2022/01/30 07:00:14;;;;;;;2.33;1.40;;;8.10;99.90;;;;;;5030215;28;20664;-76
2022/01/30 07:02:39;;;;;;;4.37;1.60;;;8.20;99.90;;;;;;5031005;28;20178;-77
2022/01/30 07:05:05;;;;;;;4.53;1.80;;;8.30;99.90;;;;;;5031264;28;20224;-75
2022/01/30 07:07:31;;;;;;;3.30;1.30;;;8.40;99.90;;;;;;5031096;28;20177;-76
2022/01/30 07:09:57;;;;;;;3.37;1.13;;;8.30;99.90;;;;;;5030002;28;20223;-77
2022/01/30 07:12:23;;;;;;;4.53;1.97;;;8.10;99.90;;;;;;5030960;28;20243;-78
2022/01/30 07:14:49;;;;;;;1.87;1.23;;;8.00;99.90;;;;;;5029526;28;20184;-76
2022/01/30 07:17:14;;;;;;;4.53;1.53;;;8.30;99.90;;;;;;5029486;28;20182;-77
2022/01/30 07:19:40;;;;;;;3.63;1.50;;;8.20;99.90;;;;;;5029781;28;20297;-76
2022/01/30 07:22:06;;;;;;;6.57;1.97;;;8.10;99.90;;;;;;5029764;28;20249;-78
2022/01/30 07:24:32;;;;;;;3.03;1.33;;;7.90;99.90;;;;;;5017562;28;20189;-77
2022/01/30 07:26:58;;;;;;;5.83;1.40;;;7.90;99.90;;;;;;5049815;28;20190;-76
2022/01/30 07:29:24;;;;;;;2.77;1.20;;;8.10;99.90;;;;;;5034181;28;20204;-76
2022/01/30 07:31:50;;;;;;;3.17;1.40;;;8.20;99.90;;;;;;5049876;28;20212;-75
2022/01/30 07:34:16;;;;;;;3.80;1.40;;;8.20;99.90;;;;;;5049361;28;20173;-77
2022/01/30 07:36:43;;;;;;;4.80;1.67;;;8.20;99.90;;;;;;5047764;28;20179;-77
2022/01/30 07:39:12;;;;;;;7.40;1.50;;;7.90;99.90;;;;;;5030871;28;20252;-78
2022/01/30 07:41:39;;;;;;;2.87;1.50;;;7.90;99.90;;;;;;5029653;28;20171;-78
2022/01/30 07:44:05;;;;;;;6.77;1.70;;;8.10;99.90;;;;;;5030841;28;20170;-78
2022/01/30 07:46:31;;;;;;;11.33;2.07;;;8.20;99.90;;;;;;5029583;28;20217;-78
2022/01/30 07:48:57;;;;;;;8.07;1.67;;;8.10;99.90;;;;;;5031710;28;20170;-75
2022/01/30 07:51:23;;;;;;;7.17;2.10;;;8.20;99.90;;;;;;5034576;28;20177;-78
2022/01/30 07:53:49;;;;;;;5.93;1.87;;;8.40;99.90;;;;;;5016761;28;20188;-78
2022/01/30 07:56:15;;;;;;;6.93;2.40;;;8.30;99.90;;;;;;5016908;28;20174;-75
2022/01/30 07:58:41;;;;;;;5.33;1.57;;;8.30;99.90;;;;;;5032864;28;20282;-76
2022/01/30 08:01:07;;;;;;;4.50;1.50;;;8.30;99.90;;;;;;5035008;28;20799;-78
2022/01/30 08:03:33;;;;;;;4.90;1.47;;;8.50;99.90;;;;;;5034211;28;20197;-76
2022/01/30 08:05:58;;;;;;;7.33;1.77;;;8.40;99.90;;;;;;5033312;28;20259;-76
2022/01/30 08:08:24;;;;;;;5.37;1.67;;;8.20;99.90;;;;;;5035303;28;20166;-77
2022/01/30 08:10:50;;;;;;;7.83;1.90;;;8.20;99.90;;;;;;5053256;28;20196;-78
2022/01/30 08:13:16;;;;;;;6.50;2.10;;;8.00;99.90;;;;;;5051399;28;20213;-75
2022/01/30 08:15:46;;;;;;;9.30;1.73;;;8.30;99.90;;;;;;5015488;28;20241;-75
2022/01/30 08:18:12;;;;;;;7.33;1.60;;;8.10;99.90;;;;;;5033309;28;20185;-76
2022/01/30 08:20:38;;;;;;;6.00;1.80;;;8.20;99.90;;;;;;5029204;28;20193;-75
2022/01/30 08:23:10;;;;;;;4.13;1.87;;;8.20;99.90;;;;;;5049438;28;20184;-76
2022/01/30 08:25:36;;;;;;;5.23;1.70;;;8.00;99.90;;;;;;5049794;28;20201;-75
2022/01/30 08:28:02;;;;;;;7.27;1.43;;;8.20;99.90;;;;;;5050606;28;20188;-76
2022/01/30 08:30:29;;;;;;;4.17;1.40;;;8.10;99.90;;;;;;5041777;28;20231;-76
2022/01/30 08:32:54;;;;;;;5.50;1.80;;;8.10;99.90;;;;;;5051279;28;20185;-78
2022/01/30 08:35:20;;;;;;;5.03;1.57;;;8.00;99.90;;;;;;5025975;28;20205;-77
2022/01/30 08:37:48;;;;;;;6.53;1.57;;;8.00;99.90;;;;;;5025928;28;20185;-77
2022/01/30 08:40:18;;;;;;;10.33;1.77;;;7.90;99.90;;;;;;5045662;28;20637;-76
2022/01/30 08:42:44;;;;;;;6.83;1.70;;;8.00;99.90;;;;;;5044141;28;20196;-77
2022/01/30 08:45:13;;;;;;;7.03;2.33;;;7.90;99.90;;;;;;5046706;28;20201;-78
2022/01/30 08:47:43;;;;;;;6.57;1.50;;;7.70;99.90;;;;;;5045383;28;20182;-75
2022/01/30 08:50:10;;;;;;;6.43;1.60;;;7.60;99.90;;;;;;5046662;28;20185;-78
2022/01/30 08:52:36;;;;;;;7.57;1.40;;;7.80;99.90;;;;;;5047442;28;20177;-76
2022/01/30 08:55:04;;;;;;;6.73;1.60;;;7.70;99.90;;;;;;5029099;28;20185;-76
2022/01/30 08:57:29;;;;;;;3.97;1.50;;;7.90;99.90;;;;;;5029748;28;20193;-76
2022/01/30 08:59:57;;;;;;;7.10;1.97;;;7.80;99.90;;;;;;5040897;28;20188;-77
2022/01/30 09:02:23;;;;;;;8.43;1.93;;;8.00;99.90;;;;;;5016420;28;20192;-78
2022/01/30 09:04:49;;;;;;;7.00;2.00;;;8.10;99.90;;;;;;5032742;28;20215;-76
2022/01/30 09:07:17;;;;;;;5.93;1.80;;;7.80;99.90;;;;;;5044106;28;20235;-78
2022/01/30 09:09:43;;;;;;;7.47;1.63;;;7.90;99.90;;;;;;5047325;28;20169;-78
2022/01/30 09:12:09;;;;;;;9.17;1.40;;;7.70;99.90;;;;;;5048728;28;20177;-78
2022/01/30 09:14:38;;;;;;;4.77;1.40;;;7.80;99.90;;;;;;5044966;28;20181;-76
2022/01/30 09:17:12;;;;;;;5.03;1.70;;;8.10;99.90;;;;;;5043680;28;20339;-79
2022/01/30 09:19:40;;;;;;;3.90;1.60;;;7.90;99.90;;;;;;5039415;28;20662;-77
2022/01/30 09:22:07;;;;;;;7.93;1.97;;;7.90;99.90;;;;;;5029634;28;20633;-78
2022/01/30 09:24:33;;;;;;;8.63;1.60;;;7.80;99.90;;;;;;5014341;28;20205;-77
2022/01/30 09:26:58;;;;;;;5.93;1.40;;;7.80;99.90;;;;;;5047072;28;20170;-79
2022/01/30 09:29:28;;;;;;;8.67;1.90;;;8.10;99.90;;;;;;5036126;28;20184;-76
2022/01/30 09:31:55;;;;;;;8.37;1.77;;;8.30;99.90;;;;;;5032862;28;20223;-75
2022/01/30 09:34:21;;;;;;;5.30;1.60;;;8.10;99.90;;;;;;5015979;28;20211;-75
2022/01/30 09:36:47;;;;;;;4.67;1.53;;;7.90;99.90;;;;;;5049420;28;20169;-77
2022/01/30 09:39:13;;;;;;;4.57;1.40;;;8.10;99.90;;;;;;5013314;28;20640;-74
2022/01/30 09:41:42;;;;;;;7.40;1.60;;;8.40;99.90;;;;;;5049972;28;20180;-79
2022/01/30 09:44:09;;;;;;;7.93;1.60;;;8.30;99.90;;;;;;5038107;28;20257;-79
2022/01/30 09:46:39;;;;;;;4.73;1.53;;;8.30;99.90;;;;;;5049841;28;20224;-76
2022/01/30 09:49:06;;;;;;;7.17;1.80;;;8.10;99.90;;;;;;5050875;28;20173;-76
2022/01/30 09:51:34;;;;;;;4.10;1.70;;;8.20;99.90;;;;;;5050943;28;20613;-80
2022/01/30 09:54:01;;;;;;;5.57;1.60;;;8.50;99.90;;;;;;5050625;28;20173;-80
2022/01/30 09:56:27;;;;;;;5.50;1.97;;;8.50;99.90;;;;;;5052088;28;20178;-79
2022/01/30 09:58:53;;;;;;;6.93;2.03;;;8.60;99.90;;;;;;5051656;28;20204;-78
2022/01/30 10:01:19;;;;;;;5.40;1.77;;;8.60;99.90;;;;;;5033337;28;20169;-77
2022/01/30 10:03:47;;;;;;;7.20;1.77;;;8.70;99.90;;;;;;5033486;28;20215;-76
2022/01/30 10:06:20;;;;;;;7.00;1.70;;;8.60;99.90;;;;;;5051484;28;20240;-77
2022/01/30 10:08:52;;;;;;;4.90;1.60;;;8.70;99.90;;;;;;5047303;28;20193;-77
2022/01/30 10:11:37;;;;;;;5.27;1.53;;;8.50;99.90;;;;;;5032259;28;20182;-76
2022/01/30 10:14:06;;;;;;;6.77;2.03;;;8.60;99.90;;;;;;5028709;28;20177;-77
2022/01/30 10:16:49;;;;;;;5.27;1.43;;;8.70;99.90;;;;;;5049784;28;20212;-78
2022/01/30 10:19:20;;;;;;;3.97;1.40;;;8.70;99.90;;;;;;5014753;28;20188;-79
2022/01/30 10:21:50;;;;;;;6.93;2.03;;;8.50;99.90;;;;;;5049389;28;20184;-79
2022/01/30 10:24:25;;;;;;;10.00;2.40;;;8.70;99.90;;;;;;5046918;28;20174;-77
2022/01/30 10:26:52;;;;;;;8.10;1.40;;;8.60;99.90;;;;;;5048095;28;20185;-77
2022/01/30 10:29:23;;;;;;;8.97;1.83;;;8.90;99.90;;;;;;5046904;28;20644;-77
2022/01/30 10:32:07;;;;;;;5.73;1.73;;;9.00;99.90;;;;;;5023675;28;20170;-76
2022/01/30 10:34:39;;;;;;;4.20;1.43;;;8.80;99.90;;;;;;5049271;28;20701;-77
2022/01/30 10:37:31;;;;;;;10.30;1.60;;;8.60;99.90;;;;;;5014580;28;20505;-79
2022/01/30 10:40:06;;;;;;;7.63;1.63;;;8.60;99.90;;;;;;5045499;28;20196;-77
2022/01/30 10:42:47;;;;;;;8.03;1.90;;;8.40;99.90;;;;;;5047063;28;20176;-78
2022/01/30 10:45:23;;;;;;;5.03;1.33;;;8.50;99.90;;;;;;5048012;28;20224;-78
2022/01/30 10:47:49;;;;;;;3.80;1.40;;;8.10;99.90;;;;;;5051164;28;20281;-77
2022/01/30 10:50:22;;;;;;;7.07;1.47;;;8.30;99.90;;;;;;5051824;28;20733;-78
2022/01/30 10:52:59;;;;;;;6.17;1.70;;;8.40;99.90;;;;;;5049168;28;20181;-78
2022/01/30 10:55:40;;;;;;;6.30;1.37;;;8.60;99.90;;;;;;5047780;28;20213;-77
2022/01/30 10:58:09;;;;;;;3.77;1.50;;;8.60;99.90;;;;;;5017239;28;20177;-78
2022/01/30 11:00:40;;;;;;;5.37;1.83;;;8.60;99.90;;;;;;5047441;28;20215;-78
2022/01/30 11:03:08;;;;;;;6.63;1.53;;;8.70;99.90;;;;;;5013753;28;20716;-78
2022/01/30 11:06:14;;;;;;;7.70;1.53;;;8.70;99.90;;;;;;5048770;28;20215;-75
2022/01/30 11:08:45;;;;;;;7.37;1.43;;;8.80;99.90;;;;;;5005313;28;20178;-77
2022/01/30 11:11:37;;;;;;;5.87;1.40;;;8.80;99.90;;;;;;4989173;28;20676;-78
2022/01/30 11:19:16;;;;;;;4.03;1.30;;;9.10;99.90;;;;;;5048085;28;20188;-78
2022/01/30 11:21:44;;;;;;;6.73;1.33;;;9.20;99.90;;;;;;5048679;28;20256;-78
2022/01/30 11:24:12;;;;;;;10.70;1.37;;;9.20;99.90;;;;;;5049683;28;20644;-79
2022/01/30 11:26:39;;;;;;;10.00;1.67;;;8.90;99.90;;;;;;5035252;28;20251;-78
2022/01/30 11:29:13;;;;;;;6.20;1.43;;;9.10;99.90;;;;;;5036343;28;20280;-78
2022/01/30 11:31:39;;;;;;;4.63;2.00;;;9.10;99.90;;;;;;5025035;28;20667;-78
2022/01/30 11:34:05;;;;;;;6.90;1.67;;;9.40;99.90;;;;;;5052692;28;20185;-77
2022/01/30 11:36:34;;;;;;;6.90;1.33;;;9.50;99.90;;;;;;5051306;28;20178;-77
2022/01/30 11:39:06;;;;;;;5.10;1.60;;;9.60;99.90;;;;;;5038441;28;20755;-79
2022/01/30 11:41:41;;;;;;;4.90;1.57;;;9.50;99.90;;;;;;5035944;28;20280;-77
2022/01/30 11:44:18;;;;;;;3.50;1.63;;;9.30;99.90;;;;;;5053108;28;20215;-78
2022/01/30 11:46:52;;;;;;;7.43;1.80;;;9.40;99.90;;;;;;5052567;28;20555;-78
2022/01/30 11:49:18;;;;;;;2.77;1.53;;;9.40;99.90;;;;;;5054130;28;20173;-78
2022/01/30 11:51:52;;;;;;;4.80;1.23;;;9.40;99.90;;;;;;5053107;28;20236;-77
2022/01/30 11:54:37;;;;;;;5.40;1.23;;;9.30;99.90;;;;;;5053188;28;20640;-78
2022/01/30 11:57:22;;;;;;;4.27;1.50;;;9.20;99.90;;;;;;5052744;28;20169;-77
2022/01/30 11:59:54;;;;;;;9.07;1.53;;;9.00;99.90;;;;;;5052239;28;20177;-78
2022/01/30 12:02:35;;;;;;;5.83;1.87;;;9.10;99.90;;;;;;5051971;28;20248;-79
2022/01/30 12:05:02;;;;;;;6.10;1.90;;;9.20;99.90;;;;;;5049735;28;20291;-79
2022/01/30 12:07:32;;;;;;;4.40;1.53;;;9.40;99.90;;;;;;5051081;28;20173;-78
2022/01/30 12:10:20;;;;;;;4.43;1.40;;;9.40;99.90;;;;;;5050930;28;20177;-77
2022/01/30 12:13:06;;;;;;;7.47;2.00;;;9.30;99.90;;;;;;5050090;28;20208;-78
2022/01/30 12:15:46;;;;;;;9.07;1.90;;;9.40;99.90;;;;;;5047969;28;20193;-78
2022/01/30 12:18:19;;;;;;;6.10;1.37;;;9.30;99.90;;;;;;5048250;28;20181;-77
2022/01/30 12:20:59;;;;;;;6.63;1.77;;;9.10;99.90;;;;;;5033160;28;20609;-78
2022/01/30 12:23:33;;;;;;;6.10;2.37;;;9.20;99.90;;;;;;5051636;28;20191;-77
2022/01/30 12:26:07;;;;;;;4.13;1.40;;;9.10;99.90;;;;;;5048283;28;20204;-78
2022/01/30 12:28:45;;;;;;;3.20;1.40;;;9.10;99.90;;;;;;5049304;28;20181;-76
2022/01/30 12:31:43;;;;;;;5.20;1.57;;;8.80;99.90;;;;;;5048328;28;20176;-78
2022/01/30 12:34:15;;;;;;;5.90;1.23;;;8.90;99.90;;;;;;5037733;28;20185;-78
2022/01/30 12:37:03;;;;;;;6.03;1.50;;;8.80;99.90;;;;;;5048356;28;20177;-77
2022/01/30 12:39:29;;;;;;;3.87;1.53;;;8.80;99.90;;;;;;5047294;28;20193;-77
2022/01/30 12:41:55;;;;;;;6.93;1.87;;;8.80;99.90;;;;;;5016087;28;20186;-77
2022/01/30 12:44:29;;;;;;;3.07;1.37;;;8.90;99.90;;;;;;5034184;28;20667;-76
2022/01/30 12:46:55;;;;;;;4.00;1.43;;;9.40;99.90;;;;;;5033676;28;20562;-77
2022/01/30 12:49:27;;;;;;;8.47;2.83;;;9.70;99.90;;;;;;5034675;28;20177;-78
2022/01/30 12:52:01;;;;;;;9.90;2.53;;;10.20;99.90;;;;;;5036404;28;20209;-77
2022/01/30 12:54:37;;;;;;;5.33;1.73;;;10.20;99.90;;;;;;5052877;28;20255;-77
2022/01/30 12:57:04;;;;;;;6.00;1.70;;;10.10;99.90;;;;;;5052196;28;20171;-78
2022/01/30 12:59:30;;;;;;;9.60;2.00;;;10.00;99.90;;;;;;5053262;28;20176;-77
2022/01/30 13:02:07;;;;;;;6.67;1.73;;;10.00;99.90;;;;;;5051529;28;20188;-77
2022/01/30 13:04:36;;;;;;;5.50;1.23;;;10.10;99.90;;;;;;5018373;28;20313;-77
2022/01/30 13:07:03;;;;;;;3.33;1.70;;;10.10;99.90;;;;;;5052504;28;20173;-79
2022/01/30 13:09:33;;;;;;;6.10;1.60;;;10.20;99.90;;;;;;5051552;28;20639;-78
2022/01/30 13:12:12;;;;;;;8.80;3.47;;;10.60;99.90;;;;;;5052617;28;20200;-78
2022/01/30 13:14:39;;;;;;;6.03;1.60;;;10.60;99.90;;;;;;5040588;28;20564;-80
2022/01/30 13:17:06;;;;;;;8.33;2.17;;;10.40;99.90;;;;;;5032732;28;20233;-80
2022/01/30 13:19:42;;;;;;;8.50;1.63;;;10.10;99.90;;;;;;5031461;28;20552;-77
2022/01/30 13:22:10;;;;;;;3.93;1.40;;;10.00;99.90;;;;;;4998815;28;20181;-78
2022/01/30 13:24:37;;;;;;;4.73;1.50;;;10.10;99.90;;;;;;5037916;28;20656;-77
2022/01/30 13:27:05;;;;;;;5.17;1.47;;;10.10;99.90;;;;;;5035201;28;20169;-79
2022/01/30 13:29:34;;;;;;;3.90;1.57;;;10.00;99.90;;;;;;5034606;28;20177;-79
2022/01/30 13:32:10;;;;;;;4.80;1.90;;;9.90;99.90;;;;;;5052307;28;20564;-77
2022/01/30 13:34:37;;;;;;;8.83;1.20;;;9.70;99.90;;;;;;5050466;28;20173;-78
2022/01/30 13:37:27;;;;;;;6.50;1.40;;;9.30;99.90;;;;;;5047482;28;20201;-78
2022/01/30 13:42:43;;;;;;;5.70;1.10;;;9.10;99.90;;;;;;5030581;28;20174;-79
2022/01/30 13:48:14;;;;;;;7.47;2.23;;;9.40;99.90;;;;;;5032207;28;20208;-79
2022/01/30 13:51:03;;;;;;;8.10;1.80;;;9.40;99.90;;;;;;5030449;28;20696;-77
2022/01/30 13:53:31;;;;;;;4.33;1.30;;;9.40;99.90;;;;;;5030689;28;20875;-78
2022/01/30 13:56:15;;;;;;;3.90;1.33;;;9.40;99.90;;;;;;5030424;28;20182;-78
2022/01/30 13:58:40;;;;;;;6.37;1.40;;;9.40;99.90;;;;;;5032222;28;20169;-79
2022/01/30 14:01:08;;;;;;;6.93;1.40;;;9.60;99.90;;;;;;5014646;28;20258;-77
2022/01/30 14:03:35;;;;;;;4.10;1.70;;;9.40;99.90;;;;;;5039585;28;20957;-78
2022/01/30 14:06:01;;;;;;;5.20;1.13;;;9.40;99.90;;;;;;5026904;28;20595;-81
2022/01/30 14:08:28;;;;;;;5.70;1.30;;;9.40;99.90;;;;;;5045321;28;20279;-77
2022/01/30 14:11:11;;;;;;;8.43;1.33;;;9.40;99.90;;;;;;5025580;28;20631;-78
2022/01/30 14:13:40;;;;;;;5.10;1.60;;;9.40;99.90;;;;;;5048574;28;20523;-78
2022/01/30 14:16:13;;;;;;;4.77;1.10;;;9.50;99.90;;;;;;5027672;28;20202;-79
2022/01/30 14:18:53;;;;;;;5.17;1.40;;;9.40;99.90;;;;;;5033517;28;20181;-78
2022/01/30 14:21:21;;;;;;;7.50;1.30;;;9.40;99.90;;;;;;5030508;28;20611;-79
2022/01/30 14:23:47;;;;;;;3.47;1.27;;;9.70;99.90;;;;;;5037405;28;20265;-79